ENSB/LYR METAR and TAF weather

Enter ICAO airport designator
Station Type Date Time Source
ENSB METAR 2022/05/26 04:20 UTC NOAA

ENSB 260420Z 27007KT 9999 FEW092 SCT140 06/01 Q1006 RMK WIND 1400FT VRB02KT


Station Type Date Time Source
ENSB Decoded METAR 2022/05/26 04:20 UTC NOAA

Svalbard Lufthavn, Norway (ENSB) 78-15N 015-28E 29M
May 26, 2022 - 12:20 AM EDT / 2022.05.26 0420 UTC
Wind: from the W (270 degrees) at 8 MPH (7 KT):0
Visibility: greater than 7 mile(s):0
Sky conditions: partly cloudy
Temperature: 42 F (6 C)
Dew Point: 33 F (1 C)
Relative Humidity: 70%
Pressure (altimeter): 29.71 in. Hg (1006 hPa)
ob: ENSB 260420Z 27007KT 9999 FEW092 SCT140 06/01 Q1006 RMK WIND 1400FT VRB02KT
cycle: 4

Station Type Date Time Source
ENSB TAF 2022/05/25 20:47 UTC NOAA

TAF
AMD ENSB 252036Z 2520/2618 25009KT 9999 FEW020 BKN045
TEMPO 2520/2601 12010KT

Example: see airport list